sensor_id;sensor_type;location;lat;lon;timestamp;P1;durP1;ratioP1;P2;durP2;ratioP2
46086;SDS011;31824;49.648;8.640;2023-02-24T00:00:41;13.45;;;5.75;;
46086;SDS011;31824;49.648;8.640;2023-02-24T00:03:52;12.75;;;4.97;;
46086;SDS011;31824;49.648;8.640;2023-02-24T00:06:58;8.45;;;3.60;;
46086;SDS011;31824;49.648;8.640;2023-02-24T00:10:00;14.23;;;5.57;;
46086;SDS011;31824;49.648;8.640;2023-02-24T00:13:03;13.60;;;5.90;;
46086;SDS011;31824;49.648;8.640;2023-02-24T00:16:05;16.85;;;7.60;;
46086;SDS011;31824;49.648;8.640;2023-02-24T00:19:07;14.60;;;6.18;;
46086;SDS011;31824;49.648;8.640;2023-02-24T00:22:13;16.15;;;6.93;;
46086;SDS011;31824;49.648;8.640;2023-02-24T00:25:14;15.65;;;6.47;;
46086;SDS011;31824;49.648;8.640;2023-02-24T00:28:16;15.85;;;6.32;;
46086;SDS011;31824;49.648;8.640;2023-02-24T00:31:18;16.15;;;6.90;;
46086;SDS011;31824;49.648;8.640;2023-02-24T00:34:21;13.43;;;6.43;;
46086;SDS011;31824;49.648;8.640;2023-02-24T00:37:24;15.52;;;6.35;;
46086;SDS011;31824;49.648;8.640;2023-02-24T00:40:26;12.82;;;5.63;;
46086;SDS011;31824;49.648;8.640;2023-02-24T00:43:34;13.35;;;5.90;;
46086;SDS011;31824;49.648;8.640;2023-02-24T00:46:39;16.05;;;6.60;;
46086;SDS011;31824;49.648;8.640;2023-02-24T00:49:42;13.85;;;6.18;;
46086;SDS011;31824;49.648;8.640;2023-02-24T00:52:47;15.20;;;7.03;;
46086;SDS011;31824;49.648;8.640;2023-02-24T00:55:57;12.25;;;5.35;;
46086;SDS011;31824;49.648;8.640;2023-02-24T00:58:59;14.05;;;5.93;;
46086;SDS011;31824;49.648;8.640;2023-02-24T01:02:02;14.30;;;5.85;;
46086;SDS011;31824;49.648;8.640;2023-02-24T01:05:05;13.77;;;5.38;;
46086;SDS011;31824;49.648;8.640;2023-02-24T01:08:08;15.35;;;5.85;;
46086;SDS011;31824;49.648;8.640;2023-02-24T01:11:10;16.50;;;5.18;;
46086;SDS011;31824;49.648;8.640;2023-02-24T01:14:31;15.85;;;5.95;;
46086;SDS011;31824;49.648;8.640;2023-02-24T01:17:38;15.10;;;5.50;;
46086;SDS011;31824;49.648;8.640;2023-02-24T01:20:39;15.80;;;5.90;;
46086;SDS011;31824;49.648;8.640;2023-02-24T01:23:43;14.98;;;6.53;;
46086;SDS011;31824;49.648;8.640;2023-02-24T01:26:48;16.55;;;6.68;;
46086;SDS011;31824;49.648;8.640;2023-02-24T01:29:50;16.02;;;6.07;;
46086;SDS011;31824;49.648;8.640;2023-02-24T01:32:51;15.73;;;6.00;;
46086;SDS011;31824;49.648;8.640;2023-02-24T01:35:54;13.77;;;5.78;;
46086;SDS011;31824;49.648;8.640;2023-02-24T01:38:59;15.63;;;6.30;;
46086;SDS011;31824;49.648;8.640;2023-02-24T01:42:02;10.77;;;5.22;;
46086;SDS011;31824;49.648;8.640;2023-02-24T01:45:11;12.10;;;5.82;;
46086;SDS011;31824;49.648;8.640;2023-02-24T01:48:15;14.85;;;5.93;;
46086;SDS011;31824;49.648;8.640;2023-02-24T01:51:18;15.82;;;6.10;;
46086;SDS011;31824;49.648;8.640;2023-02-24T01:54:25;15.15;;;5.85;;
46086;SDS011;31824;49.648;8.640;2023-02-24T01:57:31;13.35;;;6.10;;
46086;SDS011;31824;49.648;8.640;2023-02-24T02:00:36;12.27;;;6.22;;
46086;SDS011;31824;49.648;8.640;2023-02-24T02:03:45;13.02;;;5.80;;
46086;SDS011;31824;49.648;8.640;2023-02-24T02:06:49;15.15;;;5.93;;
46086;SDS011;31824;49.648;8.640;2023-02-24T02:09:52;14.02;;;7.32;;
46086;SDS011;31824;49.648;8.640;2023-02-24T02:12:55;15.70;;;6.00;;
46086;SDS011;31824;49.648;8.640;2023-02-24T02:16:00;14.23;;;6.45;;
46086;SDS011;31824;49.648;8.640;2023-02-24T02:19:17;16.85;;;6.10;;
46086;SDS011;31824;49.648;8.640;2023-02-24T02:22:49;16.58;;;5.88;;
46086;SDS011;31824;49.648;8.640;2023-02-24T02:26:11;13.43;;;5.45;;
46086;SDS011;31824;49.648;8.640;2023-02-24T02:29:36;16.58;;;6.13;;
46086;SDS011;31824;49.648;8.640;2023-02-24T02:32:54;16.90;;;6.78;;
46086;SDS011;31824;49.648;8.640;2023-02-24T02:36:24;14.68;;;6.18;;
46086;SDS011;31824;49.648;8.640;2023-02-24T02:39:33;15.48;;;5.95;;
46086;SDS011;31824;49.648;8.640;2023-02-24T02:42:41;15.65;;;6.53;;
46086;SDS011;31824;49.648;8.640;2023-02-24T02:45:49;14.95;;;6.35;;
46086;SDS011;31824;49.648;8.640;2023-02-24T02:48:57;16.13;;;5.55;;
46086;SDS011;31824;49.648;8.640;2023-02-24T02:52:02;19.02;;;6.80;;
46086;SDS011;31824;49.648;8.640;2023-02-24T02:55:09;16.67;;;6.38;;
46086;SDS011;31824;49.648;8.640;2023-02-24T02:58:16;15.43;;;7.10;;
46086;SDS011;31824;49.648;8.640;2023-02-24T03:01:25;14.05;;;5.70;;
46086;SDS011;31824;49.648;8.640;2023-02-24T03:04:30;18.02;;;6.75;;
46086;SDS011;31824;49.648;8.640;2023-02-24T03:07:33;16.33;;;6.85;;
46086;SDS011;31824;49.648;8.640;2023-02-24T03:10:41;13.18;;;5.63;;
46086;SDS011;31824;49.648;8.640;2023-02-24T03:13:46;17.02;;;6.13;;
46086;SDS011;31824;49.648;8.640;2023-02-24T03:16:51;14.05;;;5.30;;
46086;SDS011;31824;49.648;8.640;2023-02-24T03:19:57;17.77;;;6.22;;
46086;SDS011;31824;49.648;8.640;2023-02-24T03:23:17;20.00;;;7.18;;
46086;SDS011;31824;49.648;8.640;2023-02-24T03:26:26;15.80;;;6.15;;
46086;SDS011;31824;49.648;8.640;2023-02-24T03:29:32;14.57;;;5.88;;
46086;SDS011;31824;49.648;8.640;2023-02-24T03:32:41;18.02;;;6.28;;
46086;SDS011;31824;49.648;8.640;2023-02-24T03:35:52;16.90;;;6.60;;
46086;SDS011;31824;49.648;8.640;2023-02-24T03:38:55;17.23;;;6.30;;
46086;SDS011;31824;49.648;8.640;2023-02-24T03:42:00;13.82;;;6.15;;
46086;SDS011;31824;49.648;8.640;2023-02-24T03:45:09;19.48;;;7.10;;
46086;SDS011;31824;49.648;8.640;2023-02-24T03:48:11;17.70;;;6.63;;
46086;SDS011;31824;49.648;8.640;2023-02-24T03:51:14;18.10;;;6.35;;
46086;SDS011;31824;49.648;8.640;2023-02-24T03:54:24;20.27;;;7.03;;
46086;SDS011;31824;49.648;8.640;2023-02-24T03:57:46;17.23;;;5.90;;
46086;SDS011;31824;49.648;8.640;2023-02-24T04:01:08;17.15;;;5.45;;
46086;SDS011;31824;49.648;8.640;2023-02-24T04:04:16;15.02;;;5.90;;
46086;SDS011;31824;49.648;8.640;2023-02-24T04:07:35;13.40;;;5.72;;
46086;SDS011;31824;49.648;8.640;2023-02-24T04:10:43;19.08;;;7.00;;
46086;SDS011;31824;49.648;8.640;2023-02-24T04:13:57;14.48;;;5.95;;
46086;SDS011;31824;49.648;8.640;2023-02-24T04:17:04;19.30;;;6.65;;
46086;SDS011;31824;49.648;8.640;2023-02-24T04:23:24;14.75;;;6.43;;
46086;SDS011;31824;49.648;8.640;2023-02-24T04:26:31;15.80;;;5.40;;
46086;SDS011;31824;49.648;8.640;2023-02-24T04:29:37;17.02;;;5.85;;
46086;SDS011;31824;49.648;8.640;2023-02-24T04:32:49;18.20;;;6.18;;
46086;SDS011;31824;49.648;8.640;2023-02-24T04:35:51;14.38;;;5.28;;
46086;SDS011;31824;49.648;8.640;2023-02-24T04:38:55;16.77;;;6.13;;
46086;SDS011;31824;49.648;8.640;2023-02-24T04:41:58;13.40;;;5.65;;
46086;SDS011;31824;49.648;8.640;2023-02-24T04:45:02;15.43;;;6.38;;
46086;SDS011;31824;49.648;8.640;2023-02-24T04:48:10;17.67;;;5.82;;
46086;SDS011;31824;49.648;8.640;2023-02-24T04:51:15;15.77;;;5.72;;
46086;SDS011;31824;49.648;8.640;2023-02-24T04:54:18;14.20;;;5.55;;
46086;SDS011;31824;49.648;8.640;2023-02-24T04:57:22;16.38;;;6.38;;
46086;SDS011;31824;49.648;8.640;2023-02-24T05:00:25;17.50;;;5.80;;
46086;SDS011;31824;49.648;8.640;2023-02-24T05:03:33;19.50;;;6.65;;
46086;SDS011;31824;49.648;8.640;2023-02-24T05:06:36;18.23;;;6.05;;
46086;SDS011;31824;49.648;8.640;2023-02-24T05:09:44;16.88;;;5.88;;
46086;SDS011;31824;49.648;8.640;2023-02-24T05:12:50;18.00;;;6.32;;
46086;SDS011;31824;49.648;8.640;2023-02-24T05:15:54;16.63;;;6.10;;
46086;SDS011;31824;49.648;8.640;2023-02-24T05:18:57;19.75;;;7.93;;
46086;SDS011;31824;49.648;8.640;2023-02-24T05:22:18;18.58;;;6.50;;
46086;SDS011;31824;49.648;8.640;2023-02-24T05:25:23;19.75;;;6.35;;
46086;SDS011;31824;49.648;8.640;2023-02-24T05:28:27;17.20;;;6.68;;
46086;SDS011;31824;49.648;8.640;2023-02-24T05:31:32;19.27;;;7.40;;
46086;SDS011;31824;49.648;8.640;2023-02-24T05:34:34;16.23;;;7.47;;
46086;SDS011;31824;49.648;8.640;2023-02-24T05:37:39;13.20;;;5.78;;
46086;SDS011;31824;49.648;8.640;2023-02-24T05:40:45;16.02;;;6.35;;
46086;SDS011;31824;49.648;8.640;2023-02-24T05:43:49;20.40;;;6.20;;
46086;SDS011;31824;49.648;8.640;2023-02-24T05:46:55;16.85;;;6.55;;
46086;SDS011;31824;49.648;8.640;2023-02-24T05:50:00;17.05;;;5.40;;
46086;SDS011;31824;49.648;8.640;2023-02-24T05:53:02;13.15;;;5.60;;
46086;SDS011;31824;49.648;8.640;2023-02-24T05:56:03;16.40;;;6.55;;
46086;SDS011;31824;49.648;8.640;2023-02-24T05:59:09;17.40;;;6.50;;
46086;SDS011;31824;49.648;8.640;2023-02-24T06:02:12;13.02;;;4.95;;
46086;SDS011;31824;49.648;8.640;2023-02-24T06:05:16;16.27;;;5.47;;
46086;SDS011;31824;49.648;8.640;2023-02-24T06:08:28;16.80;;;6.18;;
46086;SDS011;31824;49.648;8.640;2023-02-24T06:11:37;12.50;;;5.90;;
46086;SDS011;31824;49.648;8.640;2023-02-24T06:14:47;17.92;;;6.43;;
46086;SDS011;31824;49.648;8.640;2023-02-24T06:17:49;17.00;;;6.05;;
46086;SDS011;31824;49.648;8.640;2023-02-24T06:20:50;16.20;;;6.05;;
46086;SDS011;31824;49.648;8.640;2023-02-24T06:23:53;14.30;;;5.50;;
46086;SDS011;31824;49.648;8.640;2023-02-24T06:26:55;13.45;;;5.88;;
46086;SDS011;31824;49.648;8.640;2023-02-24T06:30:13;17.25;;;6.63;;
46086;SDS011;31824;49.648;8.640;2023-02-24T06:33:15;16.08;;;5.68;;
46086;SDS011;31824;49.648;8.640;2023-02-24T06:36:17;20.10;;;6.35;;
46086;SDS011;31824;49.648;8.640;2023-02-24T06:39:20;16.63;;;6.63;;
46086;SDS011;31824;49.648;8.640;2023-02-24T06:42:22;14.45;;;5.53;;
46086;SDS011;31824;49.648;8.640;2023-02-24T06:45:26;14.10;;;5.72;;
46086;SDS011;31824;49.648;8.640;2023-02-24T06:48:27;18.48;;;6.05;;
46086;SDS011;31824;49.648;8.640;2023-02-24T06:51:29;21.00;;;6.47;;
46086;SDS011;31824;49.648;8.640;2023-02-24T06:54:31;17.13;;;6.53;;
46086;SDS011;31824;49.648;8.640;2023-02-24T07:00:39;17.58;;;5.90;;
46086;SDS011;31824;49.648;8.640;2023-02-24T07:03:43;16.80;;;5.97;;
46086;SDS011;31824;49.648;8.640;2023-02-24T07:07:03;14.75;;;5.13;;
46086;SDS011;31824;49.648;8.640;2023-02-24T07:10:05;16.48;;;7.22;;
46086;SDS011;31824;49.648;8.640;2023-02-24T07:13:09;12.65;;;4.93;;
46086;SDS011;31824;49.648;8.640;2023-02-24T07:16:16;18.65;;;5.93;;
46086;SDS011;31824;49.648;8.640;2023-02-24T07:19:19;19.90;;;8.13;;
46086;SDS011;31824;49.648;8.640;2023-02-24T07:22:23;16.48;;;6.28;;
46086;SDS011;31824;49.648;8.640;2023-02-24T07:25:25;16.38;;;6.30;;
46086;SDS011;31824;49.648;8.640;2023-02-24T07:28:33;18.10;;;6.28;;
46086;SDS011;31824;49.648;8.640;2023-02-24T07:31:36;18.88;;;6.47;;
46086;SDS011;31824;49.648;8.640;2023-02-24T07:34:39;18.33;;;6.47;;
46086;SDS011;31824;49.648;8.640;2023-02-24T07:37:41;17.45;;;7.03;;
46086;SDS011;31824;49.648;8.640;2023-02-24T07:40:43;16.05;;;6.28;;
46086;SDS011;31824;49.648;8.640;2023-02-24T07:43:47;15.48;;;6.18;;
46086;SDS011;31824;49.648;8.640;2023-02-24T07:46:55;14.30;;;6.28;;
46086;SDS011;31824;49.648;8.640;2023-02-24T07:49:59;16.95;;;7.00;;
46086;SDS011;31824;49.648;8.640;2023-02-24T07:53:03;21.52;;;6.05;;
46086;SDS011;31824;49.648;8.640;2023-02-24T07:56:06;18.42;;;7.32;;
46086;SDS011;31824;49.648;8.640;2023-02-24T07:59:14;16.15;;;6.43;;
46086;SDS011;31824;49.648;8.640;2023-02-24T08:02:17;13.30;;;6.35;;
46086;SDS011;31824;49.648;8.640;2023-02-24T08:05:19;20.08;;;7.95;;
46086;SDS011;31824;49.648;8.640;2023-02-24T08:08:22;18.65;;;6.60;;
46086;SDS011;31824;49.648;8.640;2023-02-24T08:11:26;19.60;;;7.32;;
46086;SDS011;31824;49.648;8.640;2023-02-24T08:14:42;18.45;;;6.00;;
46086;SDS011;31824;49.648;8.640;2023-02-24T08:17:51;19.83;;;7.13;;
46086;SDS011;31824;49.648;8.640;2023-02-24T08:20:54;16.13;;;6.20;;
46086;SDS011;31824;49.648;8.640;2023-02-24T08:24:05;18.95;;;7.00;;
46086;SDS011;31824;49.648;8.640;2023-02-24T08:27:07;16.73;;;6.63;;
46086;SDS011;31824;49.648;8.640;2023-02-24T08:30:10;15.88;;;7.05;;
46086;SDS011;31824;49.648;8.640;2023-02-24T08:33:25;14.95;;;5.55;;
46086;SDS011;31824;49.648;8.640;2023-02-24T08:36:30;16.25;;;5.75;;
46086;SDS011;31824;49.648;8.640;2023-02-24T08:39:32;15.70;;;6.75;;
46086;SDS011;31824;49.648;8.640;2023-02-24T08:42:36;16.92;;;7.72;;
46086;SDS011;31824;49.648;8.640;2023-02-24T08:45:38;15.18;;;5.85;;
46086;SDS011;31824;49.648;8.640;2023-02-24T08:48:42;17.02;;;5.72;;
46086;SDS011;31824;49.648;8.640;2023-02-24T08:51:47;20.27;;;7.00;;
46086;SDS011;31824;49.648;8.640;2023-02-24T08:54:49;15.77;;;6.70;;
46086;SDS011;31824;49.648;8.640;2023-02-24T08:57:53;15.95;;;6.53;;
46086;SDS011;31824;49.648;8.640;2023-02-24T09:00:56;15.43;;;6.60;;
46086;SDS011;31824;49.648;8.640;2023-02-24T09:04:02;20.30;;;7.65;;
46086;SDS011;31824;49.648;8.640;2023-02-24T09:07:11;17.23;;;6.57;;
46086;SDS011;31824;49.648;8.640;2023-02-24T09:10:16;18.33;;;7.07;;
46086;SDS011;31824;49.648;8.640;2023-02-24T09:13:19;16.20;;;6.88;;
46086;SDS011;31824;49.648;8.640;2023-02-24T09:16:21;16.92;;;6.85;;
46086;SDS011;31824;49.648;8.640;2023-02-24T09:19:25;17.88;;;6.18;;
46086;SDS011;31824;49.648;8.640;2023-02-24T09:22:40;15.63;;;6.32;;
46086;SDS011;31824;49.648;8.640;2023-02-24T09:25:57;16.15;;;6.70;;
46086;SDS011;31824;49.648;8.640;2023-02-24T09:29:06;18.63;;;7.00;;
46086;SDS011;31824;49.648;8.640;2023-02-24T09:32:27;12.20;;;5.28;;
46086;SDS011;31824;49.648;8.640;2023-02-24T09:35:31;17.73;;;7.47;;
46086;SDS011;31824;49.648;8.640;2023-02-24T09:38:37;16.33;;;6.30;;
46086;SDS011;31824;49.648;8.640;2023-02-24T09:41:59;16.58;;;6.25;;
46086;SDS011;31824;49.648;8.640;2023-02-24T09:45:10;15.88;;;5.88;;
46086;SDS011;31824;49.648;8.640;2023-02-24T09:48:22;19.77;;;7.93;;
46086;SDS011;31824;49.648;8.640;2023-02-24T09:51:46;17.40;;;6.45;;
46086;SDS011;31824;49.648;8.640;2023-02-24T09:54:57;17.95;;;7.95;;
46086;SDS011;31824;49.648;8.640;2023-02-24T09:58:26;13.82;;;6.30;;
46086;SDS011;31824;49.648;8.640;2023-02-24T10:01:45;15.90;;;6.68;;
46086;SDS011;31824;49.648;8.640;2023-02-24T10:04:51;17.65;;;6.45;;
46086;SDS011;31824;49.648;8.640;2023-02-24T10:08:11;15.05;;;6.97;;
46086;SDS011;31824;49.648;8.640;2023-02-24T10:11:18;17.02;;;5.88;;
46086;SDS011;31824;49.648;8.640;2023-02-24T10:14:35;14.63;;;6.40;;
46086;SDS011;31824;49.648;8.640;2023-02-24T10:17:48;21.60;;;7.80;;
46086;SDS011;31824;49.648;8.640;2023-02-24T10:20:53;18.42;;;6.65;;
46086;SDS011;31824;49.648;8.640;2023-02-24T10:24:10;16.77;;;6.50;;
46086;SDS011;31824;49.648;8.640;2023-02-24T10:27:17;17.65;;;7.18;;
46086;SDS011;31824;49.648;8.640;2023-02-24T10:30:29;16.38;;;6.47;;
46086;SDS011;31824;49.648;8.640;2023-02-24T10:36:46;14.75;;;6.30;;
46086;SDS011;31824;49.648;8.640;2023-02-24T10:39:54;13.60;;;5.50;;
46086;SDS011;31824;49.648;8.640;2023-02-24T10:43:02;11.45;;;5.22;;
46086;SDS011;31824;49.648;8.640;2023-02-24T10:46:17;15.65;;;5.97;;
46086;SDS011;31824;49.648;8.640;2023-02-24T10:49:41;13.38;;;6.10;;
46086;SDS011;31824;49.648;8.640;2023-02-24T10:53:00;10.85;;;4.88;;
46086;SDS011;31824;49.648;8.640;2023-02-24T10:56:06;12.95;;;5.85;;
46086;SDS011;31824;49.648;8.640;2023-02-24T10:59:27;15.02;;;6.20;;
46086;SDS011;31824;49.648;8.640;2023-02-24T11:02:58;13.32;;;4.65;;
46086;SDS011;31824;49.648;8.640;2023-02-24T11:06:18;12.07;;;5.10;;
46086;SDS011;31824;49.648;8.640;2023-02-24T11:09:41;14.30;;;5.20;;
46086;SDS011;31824;49.648;8.640;2023-02-24T11:12:54;15.82;;;5.93;;
46086;SDS011;31824;49.648;8.640;2023-02-24T11:16:15;14.77;;;6.38;;
46086;SDS011;31824;49.648;8.640;2023-02-24T11:19:38;11.25;;;4.80;;
46086;SDS011;31824;49.648;8.640;2023-02-24T11:22:43;12.18;;;4.82;;
46086;SDS011;31824;49.648;8.640;2023-02-24T11:25:50;13.10;;;5.32;;
46086;SDS011;31824;49.648;8.640;2023-02-24T11:32:31;15.02;;;5.90;;
46086;SDS011;31824;49.648;8.640;2023-02-24T11:35:47;16.85;;;6.05;;
46086;SDS011;31824;49.648;8.640;2023-02-24T11:39:01;10.85;;;4.55;;
46086;SDS011;31824;49.648;8.640;2023-02-24T11:42:22;11.55;;;4.90;;
46086;SDS011;31824;49.648;8.640;2023-02-24T11:45:31;14.82;;;5.93;;
46086;SDS011;31824;49.648;8.640;2023-02-24T11:48:36;11.18;;;4.72;;
46086;SDS011;31824;49.648;8.640;2023-02-24T11:51:41;13.30;;;5.55;;
46086;SDS011;31824;49.648;8.640;2023-02-24T11:54:46;9.85;;;4.68;;
46086;SDS011;31824;49.648;8.640;2023-02-24T11:57:53;11.13;;;5.07;;
46086;SDS011;31824;49.648;8.640;2023-02-24T12:01:03;18.73;;;7.07;;
46086;SDS011;31824;49.648;8.640;2023-02-24T12:04:12;12.43;;;5.07;;
46086;SDS011;31824;49.648;8.640;2023-02-24T12:07:20;12.60;;;5.47;;
46086;SDS011;31824;49.648;8.640;2023-02-24T12:10:26;13.23;;;5.28;;
46086;SDS011;31824;49.648;8.640;2023-02-24T12:13:35;15.40;;;6.45;;
46086;SDS011;31824;49.648;8.640;2023-02-24T12:16:42;14.43;;;4.85;;
46086;SDS011;31824;49.648;8.640;2023-02-24T12:19:57;16.50;;;6.50;;
46086;SDS011;31824;49.648;8.640;2023-02-24T12:23:08;20.10;;;5.93;;
46086;SDS011;31824;49.648;8.640;2023-02-24T12:26:19;13.02;;;5.18;;
46086;SDS011;31824;49.648;8.640;2023-02-24T12:29:38;14.65;;;5.28;;
46086;SDS011;31824;49.648;8.640;2023-02-24T12:32:55;15.02;;;5.18;;
46086;SDS011;31824;49.648;8.640;2023-02-24T12:36:03;8.80;;;3.55;;
46086;SDS011;31824;49.648;8.640;2023-02-24T12:39:13;12.40;;;5.35;;
46086;SDS011;31824;49.648;8.640;2023-02-24T12:42:20;15.35;;;5.07;;
46086;SDS011;31824;49.648;8.640;2023-02-24T12:45:32;15.70;;;5.57;;
46086;SDS011;31824;49.648;8.640;2023-02-24T12:48:49;10.85;;;4.78;;
46086;SDS011;31824;49.648;8.640;2023-02-24T12:52:06;15.00;;;4.70;;
46086;SDS011;31824;49.648;8.640;2023-02-24T12:55:17;10.82;;;4.15;;
46086;SDS011;31824;49.648;8.640;2023-02-24T12:58:24;10.90;;;5.25;;
46086;SDS011;31824;49.648;8.640;2023-02-24T13:01:31;11.60;;;4.07;;
46086;SDS011;31824;49.648;8.640;2023-02-24T13:04:44;9.70;;;4.25;;
46086;SDS011;31824;49.648;8.640;2023-02-24T13:08:03;9.80;;;3.90;;
46086;SDS011;31824;49.648;8.640;2023-02-24T13:11:19;13.80;;;4.75;;
46086;SDS011;31824;49.648;8.640;2023-02-24T13:14:28;11.30;;;4.55;;
46086;SDS011;31824;49.648;8.640;2023-02-24T13:17:33;9.63;;;4.32;;
46086;SDS011;31824;49.648;8.640;2023-02-24T13:20:46;3.30;;;1.08;;
46086;SDS011;31824;49.648;8.640;2023-02-24T13:23:52;4.55;;;1.77;;
46086;SDS011;31824;49.648;8.640;2023-02-24T13:27:05;9.82;;;3.30;;
46086;SDS011;31824;49.648;8.640;2023-02-24T13:30:23;12.10;;;4.10;;
46086;SDS011;31824;49.648;8.640;2023-02-24T13:33:29;7.32;;;3.30;;
46086;SDS011;31824;49.648;8.640;2023-02-24T13:36:35;9.00;;;3.47;;
46086;SDS011;31824;49.648;8.640;2023-02-24T13:39:47;5.60;;;2.10;;
46086;SDS011;31824;49.648;8.640;2023-02-24T13:42:55;9.65;;;3.50;;
46086;SDS011;31824;49.648;8.640;2023-02-24T13:46:02;9.30;;;2.63;;
46086;SDS011;31824;49.648;8.640;2023-02-24T13:49:25;7.20;;;2.63;;
46086;SDS011;31824;49.648;8.640;2023-02-24T13:52:41;8.95;;;2.40;;
46086;SDS011;31824;49.648;8.640;2023-02-24T13:55:57;10.20;;;3.00;;
46086;SDS011;31824;49.648;8.640;2023-02-24T13:59:23;7.43;;;2.70;;
46086;SDS011;31824;49.648;8.640;2023-02-24T14:02:41;7.43;;;2.63;;
46086;SDS011;31824;49.648;8.640;2023-02-24T14:05:44;5.57;;;2.22;;
46086;SDS011;31824;49.648;8.640;2023-02-24T14:08:51;9.50;;;3.05;;
46086;SDS011;31824;49.648;8.640;2023-02-24T14:11:57;8.73;;;3.30;;
46086;SDS011;31824;49.648;8.640;2023-02-24T14:15:03;8.73;;;3.25;;
46086;SDS011;31824;49.648;8.640;2023-02-24T14:18:15;8.40;;;3.53;;
46086;SDS011;31824;49.648;8.640;2023-02-24T14:21:20;5.72;;;2.17;;
46086;SDS011;31824;49.648;8.640;2023-02-24T14:24:26;5.38;;;2.45;;
46086;SDS011;31824;49.648;8.640;2023-02-24T14:27:29;6.10;;;2.45;;
46086;SDS011;31824;49.648;8.640;2023-02-24T14:30:33;8.05;;;2.40;;
46086;SDS011;31824;49.648;8.640;2023-02-24T14:33:37;4.50;;;1.52;;
46086;SDS011;31824;49.648;8.640;2023-02-24T14:36:42;6.10;;;2.25;;
46086;SDS011;31824;49.648;8.640;2023-02-24T14:39:50;2.97;;;1.35;;
46086;SDS011;31824;49.648;8.640;2023-02-24T14:42:53;3.92;;;1.70;;
46086;SDS011;31824;49.648;8.640;2023-02-24T14:45:57;4.05;;;1.77;;
46086;SDS011;31824;49.648;8.640;2023-02-24T14:49:12;3.22;;;1.20;;
46086;SDS011;31824;49.648;8.640;2023-02-24T14:52:22;3.00;;;1.33;;
46086;SDS011;31824;49.648;8.640;2023-02-24T14:55:31;3.53;;;1.55;;
46086;SDS011;31824;49.648;8.640;2023-02-24T14:58:39;2.75;;;1.40;;
46086;SDS011;31824;49.648;8.640;2023-02-24T15:01:46;3.28;;;1.33;;
46086;SDS011;31824;49.648;8.640;2023-02-24T15:04:51;4.35;;;1.40;;
46086;SDS011;31824;49.648;8.640;2023-02-24T15:07:55;3.15;;;1.10;;
46086;SDS011;31824;49.648;8.640;2023-02-24T15:11:00;2.40;;;0.88;;
46086;SDS011;31824;49.648;8.640;2023-02-24T15:14:17;4.60;;;1.00;;
46086;SDS011;31824;49.648;8.640;2023-02-24T15:17:21;5.90;;;2.03;;
46086;SDS011;31824;49.648;8.640;2023-02-24T15:20:26;4.18;;;1.10;;
46086;SDS011;31824;49.648;8.640;2023-02-24T15:23:29;4.82;;;1.90;;
46086;SDS011;31824;49.648;8.640;2023-02-24T15:26:35;5.75;;;2.10;;
46086;SDS011;31824;49.648;8.640;2023-02-24T15:29:37;6.45;;;2.00;;
46086;SDS011;31824;49.648;8.640;2023-02-24T15:32:38;4.63;;;1.80;;
46086;SDS011;31824;49.648;8.640;2023-02-24T15:35:46;5.68;;;1.98;;
46086;SDS011;31824;49.648;8.640;2023-02-24T15:38:50;3.72;;;1.38;;
46086;SDS011;31824;49.648;8.640;2023-02-24T15:42:05;5.07;;;1.80;;
46086;SDS011;31824;49.648;8.640;2023-02-24T15:45:20;5.88;;;1.73;;
46086;SDS011;31824;49.648;8.640;2023-02-24T15:48:25;5.10;;;1.67;;
46086;SDS011;31824;49.648;8.640;2023-02-24T15:51:31;4.50;;;1.75;;
46086;SDS011;31824;49.648;8.640;2023-02-24T15:54:37;5.40;;;1.70;;
46086;SDS011;31824;49.648;8.640;2023-02-24T15:57:44;5.57;;;1.77;;
46086;SDS011;31824;49.648;8.640;2023-02-24T16:00:47;4.97;;;2.67;;
46086;SDS011;31824;49.648;8.640;2023-02-24T16:03:52;5.75;;;2.25;;
46086;SDS011;31824;49.648;8.640;2023-02-24T16:06:55;4.25;;;1.95;;
46086;SDS011;31824;49.648;8.640;2023-02-24T16:09:57;5.13;;;2.17;;
46086;SDS011;31824;49.648;8.640;2023-02-24T16:13:02;3.80;;;1.73;;
46086;SDS011;31824;49.648;8.640;2023-02-24T16:16:04;5.65;;;1.92;;
46086;SDS011;31824;49.648;8.640;2023-02-24T16:19:09;3.65;;;1.90;;
46086;SDS011;31824;49.648;8.640;2023-02-24T16:22:13;4.00;;;1.77;;
46086;SDS011;31824;49.648;8.640;2023-02-24T16:25:16;5.28;;;2.50;;
46086;SDS011;31824;49.648;8.640;2023-02-24T16:28:20;5.88;;;1.92;;
46086;SDS011;31824;49.648;8.640;2023-02-24T16:31:22;5.88;;;2.17;;
46086;SDS011;31824;49.648;8.640;2023-02-24T16:34:26;5.53;;;2.00;;
46086;SDS011;31824;49.648;8.640;2023-02-24T16:37:28;4.65;;;2.15;;
46086;SDS011;31824;49.648;8.640;2023-02-24T16:40:33;4.57;;;1.65;;
46086;SDS011;31824;49.648;8.640;2023-02-24T16:43:39;5.75;;;2.08;;
46086;SDS011;31824;49.648;8.640;2023-02-24T16:46:42;5.55;;;2.08;;
46086;SDS011;31824;49.648;8.640;2023-02-24T16:49:45;4.60;;;1.58;;
46086;SDS011;31824;49.648;8.640;2023-02-24T16:52:47;5.60;;;2.13;;
46086;SDS011;31824;49.648;8.640;2023-02-24T16:55:49;6.70;;;1.73;;
46086;SDS011;31824;49.648;8.640;2023-02-24T16:58:53;6.35;;;2.22;;
46086;SDS011;31824;49.648;8.640;2023-02-24T17:01:55;6.35;;;2.00;;
46086;SDS011;31824;49.648;8.640;2023-02-24T17:04:58;3.35;;;1.30;;
46086;SDS011;31824;49.648;8.640;2023-02-24T17:07:59;4.43;;;1.48;;
46086;SDS011;31824;49.648;8.640;2023-02-24T17:11:01;3.05;;;1.33;;
46086;SDS011;31824;49.648;8.640;2023-02-24T17:14:05;1.55;;;0.75;;
46086;SDS011;31824;49.648;8.640;2023-02-24T17:17:07;2.85;;;0.73;;
46086;SDS011;31824;49.648;8.640;2023-02-24T17:20:10;2.40;;;0.93;;
46086;SDS011;31824;49.648;8.640;2023-02-24T17:23:13;3.88;;;1.40;;
46086;SDS011;31824;49.648;8.640;2023-02-24T17:26:16;3.17;;;0.77;;
46086;SDS011;31824;49.648;8.640;2023-02-24T17:29:19;2.70;;;0.80;;
46086;SDS011;31824;49.648;8.640;2023-02-24T17:32:21;3.28;;;1.25;;
46086;SDS011;31824;49.648;8.640;2023-02-24T17:35:23;2.88;;;0.60;;
46086;SDS011;31824;49.648;8.640;2023-02-24T17:38:25;2.63;;;0.77;;
46086;SDS011;31824;49.648;8.640;2023-02-24T17:41:27;1.55;;;0.55;;
46086;SDS011;31824;49.648;8.640;2023-02-24T17:44:30;1.75;;;0.40;;
46086;SDS011;31824;49.648;8.640;2023-02-24T17:47:32;3.83;;;1.13;;
46086;SDS011;31824;49.648;8.640;2023-02-24T17:50:35;1.95;;;0.50;;
46086;SDS011;31824;49.648;8.640;2023-02-24T17:53:36;1.35;;;0.57;;
46086;SDS011;31824;49.648;8.640;2023-02-24T17:56:38;0.90;;;0.45;;
46086;SDS011;31824;49.648;8.640;2023-02-24T17:59:42;0.50;;;0.17;;
46086;SDS011;31824;49.648;8.640;2023-02-24T18:02:46;1.33;;;0.50;;
46086;SDS011;31824;49.648;8.640;2023-02-24T18:05:56;1.75;;;0.80;;
46086;SDS011;31824;49.648;8.640;2023-02-24T18:08:58;1.58;;;0.80;;
46086;SDS011;31824;49.648;8.640;2023-02-24T18:12:00;0.80;;;0.43;;
46086;SDS011;31824;49.648;8.640;2023-02-24T18:15:04;1.27;;;0.60;;
46086;SDS011;31824;49.648;8.640;2023-02-24T18:18:09;1.70;;;0.70;;
46086;SDS011;31824;49.648;8.640;2023-02-24T18:21:11;1.20;;;0.65;;
46086;SDS011;31824;49.648;8.640;2023-02-24T18:24:13;1.65;;;0.60;;
46086;SDS011;31824;49.648;8.640;2023-02-24T18:27:15;2.42;;;0.82;;
46086;SDS011;31824;49.648;8.640;2023-02-24T18:30:19;3.70;;;1.00;;
46086;SDS011;31824;49.648;8.640;2023-02-24T18:33:21;1.20;;;0.50;;
46086;SDS011;31824;49.648;8.640;2023-02-24T18:36:24;1.48;;;0.57;;
46086;SDS011;31824;49.648;8.640;2023-02-24T18:39:26;1.63;;;0.50;;
46086;SDS011;31824;49.648;8.640;2023-02-24T18:42:29;1.90;;;0.65;;
46086;SDS011;31824;49.648;8.640;2023-02-24T18:45:33;2.53;;;0.80;;
46086;SDS011;31824;49.648;8.640;2023-02-24T18:48:34;2.92;;;1.35;;